Terminal Aerodrome Forecast
Issued by NWS Charleston, WV

Home | Current Version | Previous Version | Text Only | Print | Product List | Glossary On
Versions: 1 2 3 4 5 6 7 8 9 10 11 12 13 14 15 16 17 18 19 20 21 22
000
FTUS41 KRLX 192300
TAFBKW
TAF
KBKW 192333Z 2000/2024 13017G29KT 5SM SHRA BR OVC020
     FM200200 14011G18KT 6SM BR OVC015
     FM200400 15010G16KT 6SM SHRA BR OVC015
     FM200900 20009G14KT P6SM BKN020
     FM201400 21013G23KT P6SM BKN035
     FM201800 22015G25KT 6SM SHRA BR VCTS BKN040CB=

USA.gov is the U.S. government's official web portal to all federal, state and local government web resources and services.